createdAt,value
2023-05-15T00:00:39.552Z,4.73
2023-05-15T00:03:05.982Z,4.70
2023-05-15T00:05:32.559Z,6.90
2023-05-15T00:07:59.064Z,5.27
2023-05-15T00:10:25.623Z,4.67
2023-05-15T00:12:52.055Z,6.37
2023-05-15T00:15:18.454Z,5.60
2023-05-15T00:17:44.846Z,4.60
2023-05-15T00:20:11.770Z,3.47
2023-05-15T00:22:38.327Z,4.60
2023-05-15T00:25:05.194Z,3.93
2023-05-15T00:27:31.684Z,3.73
2023-05-15T00:29:58.094Z,3.60
2023-05-15T00:32:24.497Z,3.73
2023-05-15T00:34:50.905Z,4.17
2023-05-15T00:37:17.320Z,3.63
2023-05-15T00:39:43.731Z,3.40
2023-05-15T00:42:10.357Z,3.67
2023-05-15T00:44:38.301Z,2.90
2023-05-15T00:47:05.794Z,3.83
2023-05-15T00:49:35.374Z,3.80
2023-05-15T00:52:03.655Z,4.10
2023-05-15T00:54:30.475Z,3.37
2023-05-15T00:56:58.145Z,3.80
2023-05-15T00:59:31.816Z,5.60
2023-05-15T01:01:58.300Z,3.90
2023-05-15T01:04:25.117Z,3.37
2023-05-15T01:06:54.505Z,3.87
2023-05-15T01:09:24.581Z,4.87
2023-05-15T01:11:54.450Z,3.50
2023-05-15T01:14:20.989Z,7.33
2023-05-15T01:16:47.433Z,4.93
2023-05-15T01:21:51.814Z,5.33
2023-05-15T01:24:36.062Z,3.73
2023-05-15T01:27:17.757Z,4.33
2023-05-15T01:30:08.098Z,4.20
2023-05-15T01:32:40.143Z,3.80
2023-05-15T01:35:31.312Z,3.30
2023-05-15T01:38:27.634Z,4.90
2023-05-15T01:41:02.160Z,3.60
2023-05-15T01:43:31.778Z,4.50
2023-05-15T01:45:58.939Z,3.57
2023-05-15T01:48:28.332Z,3.67
2023-05-15T01:50:58.123Z,4.20
2023-05-15T01:53:26.709Z,5.50
2023-05-15T01:55:53.600Z,4.30
2023-05-15T01:58:20.831Z,5.00
2023-05-15T02:00:48.649Z,6.00
2023-05-15T02:03:15.889Z,5.90
2023-05-15T02:05:42.900Z,4.10
2023-05-15T02:08:09.769Z,4.13
2023-05-15T02:10:36.468Z,4.57
2023-05-15T02:13:02.979Z,6.50
2023-05-15T02:15:30.053Z,4.33
2023-05-15T02:17:56.872Z,4.93
2023-05-15T02:20:23.359Z,4.13
2023-05-15T02:22:49.733Z,3.80
2023-05-15T02:25:16.197Z,4.43
2023-05-15T02:27:56.041Z,4.30
2023-05-15T02:30:43.097Z,4.20
2023-05-15T02:33:22.857Z,3.33
2023-05-15T02:36:01.774Z,3.97
2023-05-15T02:38:33.924Z,6.80
2023-05-15T02:41:01.674Z,3.60
2023-05-15T02:43:29.200Z,4.37
2023-05-15T02:45:56.847Z,4.20
2023-05-15T02:48:24.465Z,4.27
2023-05-15T02:50:52.255Z,3.80
2023-05-15T02:53:18.656Z,4.30
2023-05-15T02:55:45.104Z,4.63
2023-05-15T02:58:11.728Z,5.07
2023-05-15T03:00:38.137Z,3.90
2023-05-15T03:03:04.741Z,4.63
2023-05-15T03:05:31.238Z,5.67
2023-05-15T03:07:58.295Z,4.53
2023-05-15T03:10:24.716Z,5.67
2023-05-15T03:12:51.468Z,5.20
2023-05-15T03:15:18.253Z,4.80
2023-05-15T03:17:44.802Z,4.90
2023-05-15T03:20:11.321Z,7.53
2023-05-15T03:22:37.730Z,5.60
2023-05-15T03:25:04.409Z,5.67
2023-05-15T03:27:30.907Z,5.63
2023-05-15T03:29:57.335Z,5.33
2023-05-15T03:32:23.800Z,7.10
2023-05-15T03:34:50.218Z,5.10
2023-05-15T03:37:16.606Z,4.80
2023-05-15T03:39:42.997Z,4.80
2023-05-15T03:42:09.445Z,4.60
2023-05-15T03:44:35.828Z,5.33
2023-05-15T03:47:02.447Z,6.27
2023-05-15T03:49:28.898Z,5.40
2023-05-15T03:51:56.671Z,5.67
2023-05-15T03:54:23.238Z,7.07
2023-05-15T03:56:49.688Z,6.00
2023-05-15T03:59:16.093Z,5.40
2023-05-15T04:01:59.468Z,5.40
2023-05-15T04:04:28.922Z,5.87
2023-05-15T04:06:55.404Z,6.13
2023-05-15T04:09:21.788Z,6.07
2023-05-15T04:11:48.241Z,6.20
2023-05-15T04:14:14.650Z,6.40
2023-05-15T04:16:41.117Z,6.50
2023-05-15T04:19:07.619Z,6.73
2023-05-15T04:21:34.087Z,6.93
2023-05-15T04:24:00.522Z,8.10
2023-05-15T04:26:26.934Z,9.80
2023-05-15T04:29:03.450Z,7.83
2023-05-15T04:31:31.476Z,7.83
2023-05-15T04:33:58.167Z,10.90
2023-05-15T04:36:24.665Z,8.40
2023-05-15T04:38:51.645Z,8.70
2023-05-15T04:41:18.610Z,10.33
2023-05-15T04:43:45.025Z,9.37
2023-05-15T04:46:11.558Z,10.80
2023-05-15T04:48:38.078Z,9.10
2023-05-15T04:51:04.543Z,10.97
2023-05-15T04:53:30.939Z,10.33
2023-05-15T04:55:57.428Z,10.03
2023-05-15T04:58:23.855Z,9.67
2023-05-15T05:00:50.312Z,10.07
2023-05-15T05:03:16.793Z,16.20
2023-05-15T05:05:43.259Z,9.23
2023-05-15T05:08:09.673Z,9.13
2023-05-15T05:10:36.078Z,7.83
2023-05-15T05:13:02.469Z,8.43
2023-05-15T05:15:28.915Z,9.10
2023-05-15T05:17:55.354Z,9.40
2023-05-15T05:20:21.757Z,10.37
2023-05-15T05:22:48.272Z,9.50
2023-05-15T05:25:14.716Z,11.30
2023-05-15T05:27:41.139Z,12.70
2023-05-15T05:30:08.699Z,12.03
2023-05-15T05:32:35.260Z,11.13
2023-05-15T05:35:01.814Z,14.80
2023-05-15T05:37:28.202Z,12.47
2023-05-15T05:39:54.858Z,12.47
2023-05-15T05:42:21.292Z,11.70
2023-05-15T05:44:47.685Z,12.63
2023-05-15T05:47:14.304Z,14.33
2023-05-15T05:49:40.896Z,14.17
2023-05-15T05:52:08.299Z,14.83
2023-05-15T05:54:35.116Z,17.87
2023-05-15T05:57:01.529Z,17.53
2023-05-15T05:59:29.153Z,19.47
2023-05-15T06:01:55.891Z,20.30
2023-05-15T06:04:22.470Z,18.50
2023-05-15T06:06:50.139Z,28.00
2023-05-15T06:09:16.750Z,33.67
2023-05-15T06:11:43.180Z,38.30
2023-05-15T06:14:09.740Z,38.93
2023-05-15T06:16:36.335Z,37.03
2023-05-15T06:19:02.821Z,48.57
2023-05-15T06:21:29.337Z,50.80
2023-05-15T06:23:55.993Z,52.37
2023-05-15T06:26:22.489Z,58.50
2023-05-15T06:28:49.927Z,57.90
2023-05-15T06:31:17.366Z,53.37
2023-05-15T06:33:43.851Z,57.13
2023-05-15T06:36:10.259Z,58.10
2023-05-15T06:38:36.639Z,50.00
2023-05-15T06:41:03.125Z,55.17
2023-05-15T06:43:29.497Z,54.23
2023-05-15T06:45:55.989Z,52.30
2023-05-15T06:48:22.366Z,53.10
2023-05-15T06:50:48.810Z,50.00
2023-05-15T06:53:15.243Z,53.00
2023-05-15T06:55:41.665Z,55.77
2023-05-15T06:58:08.108Z,50.27
2023-05-15T07:00:34.530Z,52.00
2023-05-15T07:03:01.024Z,48.97
2023-05-15T07:05:27.595Z,58.30
2023-05-15T07:07:54.092Z,59.10
2023-05-15T07:10:20.613Z,54.07
2023-05-15T07:12:47.049Z,51.13
2023-05-15T07:15:13.556Z,55.17
2023-05-15T07:17:40.035Z,51.03
2023-05-15T07:20:06.974Z,55.73
2023-05-15T07:22:38.543Z,56.70
2023-05-15T07:25:08.679Z,53.00
2023-05-15T07:27:35.930Z,53.20
2023-05-15T07:30:04.153Z,56.57
2023-05-15T07:32:31.065Z,57.67
2023-05-15T07:34:57.569Z,48.40
2023-05-15T07:37:24.822Z,51.17
2023-05-15T07:39:51.853Z,48.67
2023-05-15T07:42:18.259Z,49.37
2023-05-15T07:44:46.549Z,53.93
2023-05-15T07:47:14.375Z,49.30
2023-05-15T07:49:40.874Z,49.70
2023-05-15T07:52:07.614Z,48.17
2023-05-15T07:54:34.123Z,57.40
2023-05-15T07:57:01.280Z,54.07
2023-05-15T07:59:27.844Z,49.57
2023-05-15T08:01:54.358Z,52.37
2023-05-15T08:04:20.841Z,52.87
2023-05-15T08:06:47.360Z,50.87
2023-05-15T08:09:13.820Z,47.53
2023-05-15T08:11:40.515Z,46.53
2023-05-15T08:14:06.953Z,51.50
2023-05-15T08:16:34.155Z,51.70
2023-05-15T08:19:04.609Z,54.90
2023-05-15T08:21:31.510Z,43.77
2023-05-15T08:23:59.927Z,45.70
2023-05-15T08:26:26.783Z,42.30
2023-05-15T08:28:53.217Z,43.47
2023-05-15T08:31:19.663Z,43.47
2023-05-15T08:33:46.213Z,46.33
2023-05-15T08:36:12.868Z,43.43
2023-05-15T08:38:39.364Z,37.53
2023-05-15T08:41:11.028Z,38.97
2023-05-15T08:43:39.212Z,46.63
2023-05-15T08:46:06.819Z,49.87
2023-05-15T08:48:37.373Z,47.03
2023-05-15T08:51:08.556Z,58.33
2023-05-15T08:53:34.993Z,60.97
2023-05-15T08:56:01.805Z,56.13
2023-05-15T08:58:28.761Z,49.60
2023-05-15T09:00:55.418Z,50.30
2023-05-15T09:03:23.393Z,49.63
2023-05-15T09:05:53.186Z,47.50
2023-05-15T09:08:23.533Z,40.47
2023-05-15T09:10:50.857Z,46.03
2023-05-15T09:13:17.519Z,45.77
2023-05-15T09:15:46.820Z,44.93
2023-05-15T09:18:14.788Z,49.57
2023-05-15T09:20:41.462Z,46.07
2023-05-15T09:23:24.474Z,44.53
2023-05-15T09:25:53.528Z,40.90
2023-05-15T09:28:31.588Z,40.10
2023-05-15T09:31:03.203Z,39.20
2023-05-15T09:33:40.203Z,36.60
2023-05-15T09:36:07.931Z,38.87
2023-05-15T09:38:42.790Z,44.43
2023-05-15T09:41:09.759Z,37.87
2023-05-15T09:43:40.562Z,48.00
2023-05-15T09:46:13.072Z,41.60
2023-05-15T09:48:39.703Z,40.13
2023-05-15T09:51:14.314Z,44.00
2023-05-15T09:53:40.936Z,44.37
2023-05-15T09:56:09.839Z,43.90
2023-05-15T09:58:36.799Z,36.33
2023-05-15T10:01:04.210Z,42.30
2023-05-15T10:03:30.758Z,43.80
2023-05-15T10:06:02.077Z,40.73
2023-05-15T10:08:29.180Z,43.63
2023-05-15T10:11:01.187Z,39.33
2023-05-15T10:13:31.534Z,39.70
2023-05-15T10:15:59.270Z,41.63
2023-05-15T10:18:30.012Z,33.27
2023-05-15T10:20:58.036Z,37.20
2023-05-15T10:23:25.597Z,35.90
2023-05-15T10:26:03.139Z,37.03
2023-05-15T10:28:30.278Z,37.50
2023-05-15T10:31:01.106Z,36.07
2023-05-15T10:33:29.304Z,33.97
2023-05-15T10:35:58.605Z,38.23
2023-05-15T10:38:26.078Z,33.47
2023-05-15T10:41:05.583Z,31.67
2023-05-15T10:43:42.222Z,33.20
2023-05-15T10:46:10.000Z,34.07
2023-05-15T10:48:37.091Z,35.77
2023-05-15T10:51:03.819Z,31.40
2023-05-15T10:53:32.721Z,33.93
2023-05-15T10:55:59.387Z,32.10
2023-05-15T10:58:25.916Z,32.03
2023-05-15T11:00:52.344Z,29.57
2023-05-15T11:03:48.151Z,29.80
2023-05-15T11:06:16.035Z,30.07
2023-05-15T11:08:45.080Z,31.80
2023-05-15T11:11:50.215Z,31.93
2023-05-15T11:14:16.776Z,29.27
2023-05-15T11:16:52.529Z,28.33
2023-05-15T11:19:32.533Z,28.50
2023-05-15T11:22:00.209Z,29.20
2023-05-15T11:24:30.853Z,27.77
2023-05-15T11:27:01.827Z,29.73
2023-05-15T11:29:28.498Z,26.10
2023-05-15T11:31:55.352Z,28.60
2023-05-15T11:34:33.481Z,26.70
2023-05-15T11:37:00.824Z,25.00
2023-05-15T11:39:28.618Z,25.47
2023-05-15T11:41:55.369Z,24.50
2023-05-15T11:44:23.330Z,26.50
2023-05-15T11:46:53.096Z,26.53
2023-05-15T11:49:19.952Z,27.90
2023-05-15T11:51:48.499Z,29.60
2023-05-15T11:54:15.181Z,26.57
2023-05-15T11:56:44.545Z,24.73
2023-05-15T11:59:17.364Z,24.63
2023-05-15T12:01:49.084Z,27.13
2023-05-15T12:04:17.681Z,25.53
2023-05-15T12:06:47.297Z,24.77
2023-05-15T12:09:18.963Z,25.57
2023-05-15T12:11:50.801Z,24.17
2023-05-15T12:14:17.213Z,27.97
2023-05-15T12:16:43.650Z,27.37
2023-05-15T12:19:10.793Z,24.37
2023-05-15T12:21:43.065Z,26.27
2023-05-15T12:24:11.553Z,25.27
2023-05-15T12:26:39.314Z,27.30
2023-05-15T12:29:06.452Z,28.50
2023-05-15T12:31:36.484Z,28.67
2023-05-15T12:34:03.164Z,27.87
2023-05-15T12:36:31.017Z,27.50
2023-05-15T12:38:58.475Z,29.60
2023-05-15T12:41:31.389Z,31.73
2023-05-15T12:43:57.866Z,25.87
2023-05-15T12:46:33.807Z,26.80
2023-05-15T12:49:01.126Z,24.70
2023-05-15T12:51:30.032Z,25.30
2023-05-15T12:53:59.419Z,21.03
2023-05-15T12:56:26.406Z,25.70
2023-05-15T12:58:54.538Z,24.33
2023-05-15T13:01:21.694Z,23.97
2023-05-15T13:03:49.503Z,22.43
2023-05-15T13:06:16.377Z,24.67
2023-05-15T13:08:42.844Z,20.40
2023-05-15T13:11:16.584Z,19.67
2023-05-15T13:13:48.033Z,18.10
2023-05-15T13:16:25.875Z,19.40
2023-05-15T13:18:52.946Z,15.60
2023-05-15T13:21:19.630Z,17.27
2023-05-15T13:23:46.130Z,14.53
2023-05-15T13:26:12.669Z,15.90
2023-05-15T13:28:39.190Z,16.97
2023-05-15T13:31:06.104Z,14.73
2023-05-15T13:33:33.944Z,17.10
2023-05-15T13:36:00.419Z,17.43
2023-05-15T13:38:26.851Z,16.30
2023-05-15T13:40:53.280Z,16.63
2023-05-15T13:43:19.703Z,14.80
2023-05-15T13:45:46.152Z,14.50
2023-05-15T13:48:12.611Z,13.53
2023-05-15T13:50:39.541Z,13.70
2023-05-15T13:53:06.322Z,21.40
2023-05-15T13:55:32.760Z,14.73
2023-05-15T13:57:59.235Z,13.50
2023-05-15T14:00:25.845Z,13.87
2023-05-15T14:02:52.673Z,13.10
2023-05-15T14:05:19.276Z,14.30
2023-05-15T14:07:46.118Z,19.43
2023-05-15T14:10:12.616Z,11.30
2023-05-15T14:12:39.627Z,11.00
2023-05-15T14:15:06.705Z,11.83
2023-05-15T14:17:33.134Z,14.97
2023-05-15T14:19:59.724Z,14.43
2023-05-15T14:22:26.176Z,13.20
2023-05-15T14:24:53.109Z,11.87
2023-05-15T14:27:19.670Z,11.43
2023-05-15T14:29:46.277Z,11.73
2023-05-15T14:32:14.576Z,12.10
2023-05-15T14:34:41.085Z,11.10
2023-05-15T14:37:07.499Z,10.23
2023-05-15T14:39:33.887Z,11.20
2023-05-15T14:42:00.259Z,11.33
2023-05-15T14:44:26.675Z,13.70
2023-05-15T14:47:10.811Z,13.10
2023-05-15T14:49:37.742Z,13.77
2023-05-15T14:52:07.502Z,12.47
2023-05-15T14:54:35.511Z,12.30
2023-05-15T14:57:02.184Z,14.77
2023-05-15T14:59:28.624Z,15.07
2023-05-15T15:01:55.132Z,13.80
2023-05-15T15:04:21.538Z,13.30
2023-05-15T15:06:48.483Z,14.63
2023-05-15T15:09:14.971Z,14.00
2023-05-15T15:11:41.388Z,14.37
2023-05-15T15:14:07.827Z,12.07
2023-05-15T15:16:34.370Z,10.33
2023-05-15T15:19:00.845Z,12.33
2023-05-15T15:21:27.438Z,11.63
2023-05-15T15:23:55.126Z,11.30
2023-05-15T15:26:21.776Z,14.17
2023-05-15T15:28:48.266Z,24.20
2023-05-15T15:31:15.419Z,18.40
2023-05-15T15:33:41.933Z,22.30
2023-05-15T15:36:08.463Z,10.70
2023-05-15T15:38:34.846Z,13.13
2023-05-15T15:41:03.142Z,12.00
2023-05-15T15:43:29.585Z,11.23
2023-05-15T15:45:56.066Z,13.80
2023-05-15T15:48:22.932Z,12.10
2023-05-15T15:50:50.083Z,12.20
2023-05-15T15:53:16.499Z,12.80
2023-05-15T15:55:44.156Z,12.40
2023-05-15T15:58:11.591Z,13.40
2023-05-15T16:00:38.071Z,11.80
2023-05-15T16:03:04.654Z,15.13
2023-05-15T16:05:31.211Z,14.57
2023-05-15T16:07:57.763Z,18.17
2023-05-15T16:10:24.308Z,18.10
2023-05-15T16:12:51.173Z,16.23
2023-05-15T16:15:23.145Z,18.83
2023-05-15T16:17:54.472Z,18.47
2023-05-15T16:20:21.877Z,19.07
2023-05-15T16:22:48.444Z,18.83
2023-05-15T16:25:14.905Z,19.63
2023-05-15T16:27:41.401Z,19.23
2023-05-15T16:30:09.292Z,16.67
2023-05-15T16:32:36.013Z,16.87
2023-05-15T16:35:02.997Z,16.03
2023-05-15T16:37:29.448Z,14.63
2023-05-15T16:39:55.863Z,18.33
2023-05-15T16:42:22.285Z,16.30
2023-05-15T16:44:48.708Z,17.63
2023-05-15T16:47:15.138Z,17.67
2023-05-15T16:49:44.151Z,16.27
2023-05-15T16:52:11.410Z,17.30
2023-05-15T16:54:38.043Z,14.60
2023-05-15T16:57:04.988Z,15.40
2023-05-15T16:59:31.550Z,19.90
2023-05-15T17:01:59.050Z,23.07
2023-05-15T17:04:25.746Z,18.03
2023-05-15T17:06:52.176Z,16.03
2023-05-15T17:09:18.643Z,17.10
2023-05-15T17:11:45.064Z,17.53
2023-05-15T17:14:11.449Z,19.07
2023-05-15T17:16:37.940Z,19.30
2023-05-15T17:19:04.510Z,20.20
2023-05-15T17:21:31.709Z,19.47
2023-05-15T17:23:58.257Z,26.53
2023-05-15T17:26:24.798Z,22.50
2023-05-15T17:28:51.175Z,22.20
2023-05-15T17:31:17.826Z,20.63
2023-05-15T17:33:44.253Z,21.40
2023-05-15T17:36:10.721Z,20.63
2023-05-15T17:38:37.224Z,24.70
2023-05-15T17:41:03.658Z,23.63
2023-05-15T17:43:30.139Z,23.20
2023-05-15T17:45:57.484Z,20.80
2023-05-15T17:48:23.990Z,21.53
2023-05-15T17:50:51.675Z,23.33
2023-05-15T17:53:18.175Z,24.70
2023-05-15T17:55:45.239Z,22.80
2023-05-15T17:58:11.709Z,22.47
2023-05-15T18:00:38.157Z,23.80
2023-05-15T18:03:04.696Z,23.47
2023-05-15T18:05:31.284Z,25.00
2023-05-15T18:07:58.124Z,24.10
2023-05-15T18:10:24.706Z,23.40
2023-05-15T18:12:51.205Z,29.07
2023-05-15T18:15:17.646Z,29.30
2023-05-15T18:17:44.133Z,31.20
2023-05-15T18:20:11.530Z,31.93
2023-05-15T18:22:38.288Z,31.73
2023-05-15T18:25:05.528Z,31.40
2023-05-15T18:27:31.982Z,30.90
2023-05-15T18:29:58.433Z,35.87
2023-05-15T18:32:24.857Z,32.90
2023-05-15T18:34:51.273Z,34.27
2023-05-15T18:37:17.733Z,33.10
2023-05-15T18:39:44.241Z,35.50
2023-05-15T18:42:10.868Z,37.23
2023-05-15T18:44:37.312Z,34.47
2023-05-15T18:47:03.952Z,38.27
2023-05-15T18:49:30.498Z,38.77
2023-05-15T18:51:57.902Z,37.93
2023-05-15T18:54:24.487Z,34.43
2023-05-15T18:56:51.017Z,36.20
2023-05-15T18:59:17.505Z,40.73
2023-05-15T19:01:45.079Z,37.33
2023-05-15T19:04:11.956Z,37.93
2023-05-15T19:06:39.166Z,32.00
2023-05-15T19:09:05.572Z,36.60
2023-05-15T19:11:31.982Z,37.30
2023-05-15T19:13:58.343Z,32.93
2023-05-15T19:16:28.444Z,32.43
2023-05-15T19:18:55.568Z,35.00
2023-05-15T19:21:22.273Z,30.93
2023-05-15T19:23:50.342Z,31.07
2023-05-15T19:26:16.804Z,37.20
2023-05-15T19:28:43.376Z,31.60
2023-05-15T19:31:20.163Z,29.93
2023-05-15T19:33:54.204Z,29.23
2023-05-15T19:36:20.681Z,28.63
2023-05-15T19:38:47.820Z,26.53
2023-05-15T19:41:14.776Z,26.40
2023-05-15T19:43:41.376Z,26.40
2023-05-15T19:46:07.787Z,28.03
2023-05-15T19:48:34.217Z,25.00
2023-05-15T19:51:00.751Z,28.73
2023-05-15T19:53:27.328Z,26.87
2023-05-15T19:55:53.727Z,25.07
2023-05-15T19:58:22.192Z,28.70
2023-05-15T20:00:49.823Z,28.50
2023-05-15T20:03:16.297Z,31.47
2023-05-15T20:05:43.047Z,30.73
2023-05-15T20:08:09.495Z,28.80
2023-05-15T20:10:35.860Z,31.87
2023-05-15T20:13:02.870Z,30.50
2023-05-15T20:15:31.474Z,32.50
2023-05-15T20:17:58.183Z,28.33
2023-05-15T20:20:25.195Z,27.30
2023-05-15T20:22:51.771Z,33.40
2023-05-15T20:25:18.327Z,31.03
2023-05-15T20:27:44.740Z,26.17
2023-05-15T20:30:11.676Z,25.17
2023-05-15T20:32:38.269Z,25.73
2023-05-15T20:35:05.728Z,25.37
2023-05-15T20:37:33.238Z,22.90
2023-05-15T20:40:00.175Z,20.70
2023-05-15T20:42:28.041Z,19.07
2023-05-15T20:44:54.521Z,21.20
2023-05-15T20:47:21.020Z,19.23
2023-05-15T20:49:47.563Z,23.93
2023-05-15T20:52:13.987Z,16.73
2023-05-15T20:54:40.488Z,16.87
2023-05-15T20:57:06.964Z,19.07
2023-05-15T20:59:33.953Z,16.93
2023-05-15T21:02:00.339Z,17.90
2023-05-15T21:04:26.808Z,16.10
2023-05-15T21:06:54.162Z,17.03
2023-05-15T21:09:20.683Z,14.37
2023-05-15T21:11:47.274Z,18.30
2023-05-15T21:14:14.060Z,13.40
2023-05-15T21:16:40.759Z,16.77
2023-05-15T21:19:07.283Z,15.80
2023-05-15T21:21:35.227Z,16.40
2023-05-15T21:24:05.089Z,16.30
2023-05-15T21:26:31.604Z,15.27
2023-05-15T21:28:59.120Z,15.47
2023-05-15T21:31:26.831Z,13.90
2023-05-15T21:33:54.257Z,15.00
2023-05-15T21:36:21.307Z,12.70
2023-05-15T21:38:47.767Z,13.23
2023-05-15T21:41:14.198Z,18.20
2023-05-15T21:43:40.627Z,12.80
2023-05-15T21:46:07.132Z,13.70
2023-05-15T21:48:33.556Z,15.30
2023-05-15T21:50:59.958Z,12.80
2023-05-15T21:53:26.626Z,14.00
2023-05-15T21:55:59.535Z,14.53
2023-05-15T21:58:25.985Z,12.33
2023-05-15T22:00:52.465Z,16.07
2023-05-15T22:03:19.947Z,10.57
2023-05-15T22:05:47.647Z,10.50
2023-05-15T22:08:14.048Z,13.73
2023-05-15T22:10:41.205Z,9.40
2023-05-15T22:13:08.968Z,13.97
2023-05-15T22:15:35.636Z,11.77
2023-05-15T22:18:03.841Z,11.70
2023-05-15T22:20:30.536Z,9.93
2023-05-15T22:22:57.249Z,13.77
2023-05-15T22:25:24.048Z,11.77
2023-05-15T22:27:50.664Z,12.63
2023-05-15T22:30:17.298Z,10.30
2023-05-15T22:32:43.777Z,8.13
2023-05-15T22:35:11.336Z,9.17
2023-05-15T22:37:38.362Z,7.77
2023-05-15T22:40:07.439Z,9.93
2023-05-15T22:42:33.862Z,7.67
2023-05-15T22:45:00.763Z,6.67
2023-05-15T22:47:28.413Z,10.70
2023-05-15T22:49:54.875Z,7.53
2023-05-15T22:52:21.342Z,9.93
2023-05-15T22:54:47.921Z,7.97
2023-05-15T22:57:14.379Z,13.30
2023-05-15T22:59:40.981Z,10.33
2023-05-15T23:02:07.381Z,8.43
2023-05-15T23:04:34.607Z,6.20
2023-05-15T23:07:01.031Z,10.70
2023-05-15T23:09:27.437Z,11.23
2023-05-15T23:11:53.893Z,8.60
2023-05-15T23:14:21.686Z,9.27
2023-05-15T23:16:49.773Z,9.13
2023-05-15T23:19:16.614Z,13.50
2023-05-15T23:21:43.090Z,12.13
2023-05-15T23:24:09.585Z,9.17
2023-05-15T23:26:36.027Z,10.97
2023-05-15T23:29:02.591Z,14.83
2023-05-15T23:31:29.181Z,13.80
2023-05-15T23:33:55.635Z,13.13
2023-05-15T23:36:22.042Z,14.77
2023-05-15T23:38:48.491Z,14.40
2023-05-15T23:41:14.900Z,15.33
2023-05-15T23:43:41.298Z,13.33
2023-05-15T23:46:07.783Z,12.80
2023-05-15T23:48:34.294Z,15.67
2023-05-15T23:51:00.847Z,11.43
2023-05-15T23:53:27.222Z,10.70
2023-05-15T23:55:53.628Z,14.03
2023-05-15T23:58:20.006Z,11.73
